Time;durP1;ratioP1;P1;durP2;ratioP2;P2;SDS_P1;SDS_P2;PMS_P1;PMS_P2;Temp;Humidity;BMP_temperature;BMP_pressure;BME280_temperature;BME280_humidity;BME280_pressure;Samples;Min_cycle;Max_cycle;Signal;HPM_P1;HPM_P2
2023/06/22 00:00:56;;;;;;;13.65;10.77;;;665.60;2432.00;;;;;;4886611;29;20429;-74
2023/06/22 00:03:23;;;;;;;17.38;10.63;;;665.60;2432.00;;;;;;4871543;29;20502;-77
2023/06/22 00:05:50;;;;;;;15.98;10.27;;;640.90;2432.00;;;;;;4884333;29;20029;-74
2023/06/22 00:08:16;;;;;;;15.32;10.75;;;640.80;2432.00;;;;;;4886147;29;20039;-74
2023/06/22 00:10:42;;;;;;;15.57;10.48;;;665.60;2432.00;;;;;;4886387;29;20495;-78
2023/06/22 00:13:09;;;;;;;14.23;11.38;;;665.60;2432.00;;;;;;4893671;29;20057;-73
2023/06/22 00:15:36;;;;;;;16.77;11.65;;;640.80;2432.00;;;;;;4885541;29;20025;-75
2023/06/22 00:18:02;;;;;;;28.70;12.98;;;640.70;2432.00;;;;;;4891160;29;20107;-73
2023/06/22 00:20:28;;;;;;;16.65;11.80;;;;;;;;;;4884539;29;20056;-74
2023/06/22 00:22:57;;;;;;;20.55;12.68;;;;;;;;;;4883970;29;20065;-74
2023/06/22 00:25:23;;;;;;;19.58;10.77;;;;;;;;;;4884982;29;20045;-73
2023/06/22 00:27:50;;;;;;;19.08;11.82;;;;;;;;;;4889105;29;20056;-76
2023/06/22 00:30:16;;;;;;;15.88;12.07;;;;;;;;;;4887782;29;20029;-76
2023/06/22 00:32:43;;;;;;;22.88;12.75;;;;;;;;;;4891922;29;20519;-78
2023/06/22 00:35:10;;;;;;;20.50;13.07;;;;;;;;;;4883065;29;20476;-76
2023/06/22 00:37:36;;;;;;;20.70;14.07;;;;;;;;;;4890461;29;20025;-74
2023/06/22 00:40:03;;;;;;;27.92;13.63;;;;;;;;;;4888438;29;20029;-74
2023/06/22 00:42:29;;;;;;;28.27;14.45;;;;;;;;;;4880547;29;20025;-82
2023/06/22 00:44:55;;;;;;;19.15;12.82;;;;;;;;;;4883802;29;20151;-78
2023/06/22 00:47:22;;;;;;;23.42;15.07;;;;;;;;;;4881960;29;20106;-74
2023/06/22 00:49:51;;;;;;;19.40;12.85;;;640.70;2432.00;;;;;;4885167;29;20029;-74
2023/06/22 00:52:20;;;;;;;19.83;13.35;;;640.50;2432.00;;;;;;4894507;29;20372;-79
2023/06/22 00:54:51;;;;;;;16.85;11.77;;;640.50;2432.00;;;;;;4886584;29;20037;-75
2023/06/22 00:57:18;;;;;;;17.52;10.82;;;640.40;2432.00;;;;;;4879546;29;20035;-74
2023/06/22 00:59:45;;;;;;;18.95;12.48;;;640.40;2432.00;;;;;;4887546;29;20017;-74
2023/06/22 01:02:11;;;;;;;25.30;12.40;;;640.50;2432.00;;;;;;4883803;29;20112;-79
2023/06/22 01:04:38;;;;;;;16.75;11.73;;;640.50;2432.00;;;;;;4888777;29;20479;-74
2023/06/22 01:07:34;;;;;;;19.52;13.00;;;640.20;2432.00;;;;;;4891057;29;20056;-74
2023/06/22 01:10:12;;;;;;;25.40;14.30;;;640.10;2432.00;;;;;;4891508;29;20036;-74
2023/06/22 01:12:48;;;;;;;19.48;13.63;;;615.10;2432.00;;;;;;4899586;29;20054;-74
2023/06/22 01:15:37;;;;;;;16.30;13.00;;;640.00;2432.00;;;;;;4901496;29;20033;-78
2023/06/22 01:18:05;;;;;;;16.35;12.98;;;640.10;2432.00;;;;;;4882592;29;20025;-76
2023/06/22 01:20:34;;;;;;;29.25;13.85;;;640.00;2432.00;;;;;;4882593;29;20056;-74
2023/06/22 01:23:05;;;;;;;19.65;13.63;;;640.00;2432.00;;;;;;4882750;29;20033;-76
2023/06/22 01:25:57;;;;;;;27.58;13.35;;;640.10;2432.00;;;;;;4882721;29;20050;-75
2023/06/22 01:28:37;;;;;;;15.40;11.93;;;640.40;2432.00;;;;;;4882596;29;20033;-78
2023/06/22 01:31:05;;;;;;;21.50;12.73;;;640.50;2432.00;;;;;;4882549;29;20029;-74
2023/06/22 01:33:36;;;;;;;30.77;12.70;;;640.50;2432.00;;;;;;4882542;29;20045;-74
2023/06/22 01:36:03;;;;;;;21.02;13.00;;;640.60;2432.00;;;;;;4882402;29;20040;-81
2023/06/22 01:38:30;;;;;;;20.10;13.20;;;640.70;2432.00;;;;;;4882282;29;20096;-75
2023/06/22 01:40:58;;;;;;;21.30;13.98;;;640.90;2432.00;;;;;;4882159;29;20149;-73
2023/06/22 01:43:26;;;;;;;21.77;14.98;;;640.50;2432.00;;;;;;4882310;29;20047;-79
2023/06/22 01:45:56;;;;;;;24.45;14.80;;;640.50;2432.00;;;;;;4882389;29;20113;-76
2023/06/22 01:48:23;;;;;;;21.55;14.35;;;640.50;2432.00;;;;;;4864958;29;20381;-75
2023/06/22 01:50:49;;;;;;;18.80;13.20;;;640.40;2432.00;;;;;;4882103;29;20052;-74
2023/06/22 01:53:15;;;;;;;17.73;11.77;;;640.10;2432.00;;;;;;4882044;29;20029;-76
2023/06/22 01:55:41;;;;;;;17.20;13.30;;;640.10;2432.00;;;;;;4882257;29;20036;-78
2023/06/22 01:58:06;;;;;;;15.30;12.48;;;615.30;2432.00;;;;;;4882207;29;20104;-76
2023/06/22 02:00:38;;;;;;;18.98;12.82;;;615.20;2432.00;;;;;;4881920;29;20080;-79
2023/06/22 02:03:11;;;;;;;17.58;12.30;;;615.10;2432.00;;;;;;4882012;29;20396;-74
2023/06/22 02:05:47;;;;;;;19.25;12.57;;;615.10;2432.00;;;;;;4881711;29;20029;-74
2023/06/22 02:08:21;;;;;;;21.50;13.30;;;615.10;2432.00;;;;;;4881807;29;20475;-74
2023/06/22 02:10:48;;;;;;;20.65;13.68;;;615.00;2432.00;;;;;;4881836;29;20509;-76
2023/06/22 02:13:14;;;;;;;21.08;13.55;;;615.00;2432.00;;;;;;4881473;29;20057;-78
2023/06/22 02:15:41;;;;;;;23.88;13.80;;;615.10;2432.00;;;;;;4881085;29;20179;-76
2023/06/22 02:18:07;;;;;;;21.20;13.63;;;615.10;2432.00;;;;;;4881579;29;20028;-77
2023/06/22 02:20:35;;;;;;;24.88;14.25;;;615.10;2432.00;;;;;;4881465;29;20032;-75
2023/06/22 02:23:01;;;;;;;26.02;14.82;;;615.00;2432.00;;;;;;4881481;29;20183;-75
2023/06/22 02:25:27;;;;;;;24.60;14.30;;;615.00;2432.00;;;;;;4881715;29;20104;-73
2023/06/22 02:27:52;;;;;;;27.10;15.35;;;614.90;2432.00;;;;;;4881546;29;20029;-74
2023/06/22 02:30:18;;;;;;;23.60;14.80;;;614.90;2432.00;;;;;;4881532;29;20501;-74
2023/06/22 02:32:44;;;;;;;18.90;13.88;;;614.90;2432.00;;;;;;4881542;29;20032;-75
2023/06/22 02:35:10;;;;;;;21.23;13.73;;;614.90;2432.00;;;;;;4881422;29;20029;-79
2023/06/22 02:37:41;;;;;;;21.30;14.45;;;614.80;2432.00;;;;;;4881175;29;20412;-76
2023/06/22 02:40:08;;;;;;;22.63;13.82;;;614.80;2432.00;;;;;;4881371;29;20052;-73
2023/06/22 02:42:35;;;;;;;21.17;14.43;;;614.80;2432.00;;;;;;4881149;29;20076;-75
2023/06/22 02:45:01;;;;;;;17.95;12.93;;;614.80;2432.00;;;;;;4881227;29;20397;-78
2023/06/22 02:47:27;;;;;;;19.52;12.73;;;614.70;2432.00;;;;;;4881171;29;20033;-74
2023/06/22 02:49:52;;;;;;;22.85;12.18;;;614.50;2432.00;;;;;;4881142;29;20033;-75
2023/06/22 02:52:18;;;;;;;24.17;13.25;;;614.40;2432.00;;;;;;4881033;29;20021;-74
2023/06/22 02:54:45;;;;;;;19.83;13.02;;;589.70;2432.00;;;;;;4881008;29;20514;-83
2023/06/22 02:57:13;;;;;;;19.73;13.35;;;589.70;2432.00;;;;;;4880915;29;20365;-75
2023/06/22 02:59:42;;;;;;;17.33;13.63;;;589.60;2432.00;;;;;;4880959;29;20077;-76
2023/06/22 03:02:09;;;;;;;14.38;12.43;;;589.60;2432.00;;;;;;4863184;29;20403;-75
2023/06/22 03:04:35;;;;;;;21.30;13.95;;;589.50;2432.00;;;;;;4880120;29;20029;-76
2023/06/22 03:07:01;;;;;;;17.83;13.45;;;589.50;2432.00;;;;;;4880045;29;20037;-79
2023/06/22 03:09:27;;;;;;;18.63;14.15;;;589.40;2432.00;;;;;;4880281;29;20033;-78
2023/06/22 03:11:54;;;;;;;20.85;14.07;;;589.40;2432.00;;;;;;4880048;29;20025;-77
2023/06/22 03:14:19;;;;;;;17.38;13.90;;;589.40;2432.00;;;;;;4879918;29;20100;-79
2023/06/22 03:16:45;;;;;;;22.55;13.32;;;589.40;2432.00;;;;;;4880187;29;20523;-75
2023/06/22 03:19:11;;;;;;;20.77;13.75;;;589.30;2432.00;;;;;;4880032;29;20535;-75
2023/06/22 03:21:38;;;;;;;26.10;13.75;;;589.30;2432.00;;;;;;4879987;29;20018;-74
2023/06/22 03:24:05;;;;;;;16.55;13.38;;;589.30;2432.00;;;;;;4879895;29;20044;-79
2023/06/22 03:26:30;;;;;;;18.00;13.68;;;589.30;2432.00;;;;;;4879924;29;20025;-79
2023/06/22 03:28:56;;;;;;;19.48;13.43;;;589.30;2432.00;;;;;;4879082;29;20396;-75
2023/06/22 03:31:22;;;;;;;24.90;13.15;;;589.30;2432.00;;;;;;4880227;29;20077;-81
2023/06/22 03:33:49;;;;;;;18.05;12.52;;;589.40;2432.00;;;;;;4879815;29;20029;-75
2023/06/22 03:36:18;;;;;;;17.02;13.13;;;589.30;2432.00;;;;;;4879615;29;20032;-75
2023/06/22 03:38:46;;;;;;;22.20;14.20;;;589.30;2432.00;;;;;;4879683;29;20028;-77
2023/06/22 03:41:12;;;;;;;21.48;13.25;;;589.20;2432.00;;;;;;4879773;29;20029;-75
2023/06/22 03:43:37;;;;;;;15.23;12.70;;;589.20;2432.00;;;;;;4879306;29;20047;-75
2023/06/22 03:46:03;;;;;;;18.88;13.75;;;589.00;2432.00;;;;;;4879600;29;20116;-86
2023/06/22 03:48:29;;;;;;;18.52;13.85;;;589.00;2432.00;;;;;;4879614;29;20085;-74
2023/06/22 03:50:54;;;;;;;22.13;12.90;;;589.00;2432.00;;;;;;4879408;29;20029;-75
2023/06/22 03:53:20;;;;;;;17.48;14.23;;;589.00;2432.00;;;;;;4879471;29;20025;-75
2023/06/22 03:55:51;;;;;;;16.88;14.05;;;589.10;2432.00;;;;;;4879454;29;20077;-74
2023/06/22 03:58:18;;;;;;;22.42;13.57;;;589.20;2432.00;;;;;;4879282;29;20480;-75
2023/06/22 04:00:46;;;;;;;19.83;12.65;;;589.20;2432.00;;;;;;4879495;29;20017;-79
2023/06/22 04:03:12;;;;;;;25.08;14.25;;;589.30;2432.00;;;;;;4879386;29;20048;-79
2023/06/22 04:05:39;;;;;;;20.48;13.88;;;589.40;2432.00;;;;;;4879184;29;20148;-75
2023/06/22 04:08:05;;;;;;;21.25;13.50;;;589.40;2432.00;;;;;;4879188;29;20064;-74
2023/06/22 04:10:31;;;;;;;20.65;14.75;;;589.50;2432.00;;;;;;4879161;29;20021;-80
2023/06/22 04:12:56;;;;;;;17.58;14.00;;;589.50;2432.00;;;;;;4878888;29;20052;-76
2023/06/22 04:15:22;;;;;;;20.77;14.48;;;589.60;2432.00;;;;;;4879224;29;20036;-79
2023/06/22 04:17:48;;;;;;;22.38;14.77;;;589.60;2432.00;;;;;;4879340;29;20089;-79
2023/06/22 04:20:14;;;;;;;18.80;14.07;;;589.60;2432.00;;;;;;4879145;29;20104;-75
2023/06/22 04:22:39;;;;;;;23.20;15.48;;;589.60;2432.00;;;;;;4879048;29;20088;-75
2023/06/22 04:25:07;;;;;;;22.02;14.10;;;589.70;2432.00;;;;;;4879188;29;20021;-81
2023/06/22 04:27:37;;;;;;;19.15;14.57;;;614.50;2432.00;;;;;;4879288;29;20033;-74
2023/06/22 04:30:04;;;;;;;22.38;15.43;;;614.50;2432.00;;;;;;4878840;29;20021;-75
2023/06/22 04:32:29;;;;;;;24.20;15.18;;;614.60;2432.00;;;;;;4878957;29;20032;-76
2023/06/22 04:34:55;;;;;;;20.75;15.05;;;614.70;2432.00;;;;;;4879134;29;20025;-79
2023/06/22 04:37:23;;;;;;;22.55;14.73;;;614.80;2432.00;;;;;;4873292;29;20043;-76
2023/06/22 04:39:49;;;;;;;20.55;14.50;;;614.90;2432.00;;;;;;4899678;29;20016;-76
2023/06/22 04:42:15;;;;;;;20.63;12.63;;;614.90;2432.00;;;;;;4901652;29;20116;-74
2023/06/22 04:44:42;;;;;;;16.42;13.52;;;614.90;2432.00;;;;;;4901397;29;20769;-75
2023/06/22 04:47:10;;;;;;;18.23;13.07;;;614.90;2432.00;;;;;;4884667;29;20024;-77
2023/06/22 04:49:37;;;;;;;17.70;13.05;;;615.00;2432.00;;;;;;4901316;29;20033;-78
2023/06/22 04:52:13;;;;;;;17.33;13.82;;;615.10;2432.00;;;;;;4901174;29;20020;-74
2023/06/22 04:54:47;;;;;;;22.02;12.35;;;615.20;2432.00;;;;;;4901052;29;20036;-75
2023/06/22 04:57:13;;;;;;;14.90;12.18;;;615.30;2432.00;;;;;;4901531;29;20371;-75
2023/06/22 04:59:41;;;;;;;17.90;13.57;;;615.20;2432.00;;;;;;4901071;29;20166;-76
2023/06/22 05:02:07;;;;;;;19.27;13.52;;;615.30;2432.00;;;;;;4898363;29;21099;-75
2023/06/22 05:04:35;;;;;;;19.52;14.30;;;615.30;2432.00;;;;;;4892061;29;20040;-75
2023/06/22 05:07:02;;;;;;;18.25;13.35;;;640.00;2432.00;;;;;;4888348;29;20616;-74
2023/06/22 05:09:31;;;;;;;17.90;12.98;;;640.00;2432.00;;;;;;4896685;29;20024;-75
2023/06/22 05:11:57;;;;;;;15.93;11.73;;;640.20;2432.00;;;;;;4885417;29;20025;-74
2023/06/22 05:14:23;;;;;;;14.80;12.20;;;640.20;2432.00;;;;;;4892361;29;20640;-77
2023/06/22 05:16:49;;;;;;;14.35;12.13;;;640.40;2432.00;;;;;;4890228;29;20025;-76
2023/06/22 05:19:15;;;;;;;17.02;12.88;;;640.50;2432.00;;;;;;4893971;29;20092;-78
2023/06/22 05:21:41;;;;;;;15.82;12.35;;;640.60;2432.00;;;;;;4887536;29;20028;-75
2023/06/22 05:24:06;;;;;;;18.75;12.23;;;640.70;2432.00;;;;;;4886328;29;20085;-76
2023/06/22 05:26:34;;;;;;;13.77;11.75;;;640.80;2432.00;;;;;;4891140;29;20045;-77
2023/06/22 05:29:02;;;;;;;14.88;11.02;;;640.90;2432.00;;;;;;4890060;29;20108;-75
2023/06/22 05:31:28;;;;;;;12.98;11.57;;;665.60;2432.00;;;;;;4892875;29;20017;-77
2023/06/22 05:33:54;;;;;;;13.43;11.65;;;665.60;2432.00;;;;;;4888100;29;20127;-78
2023/06/22 05:36:23;;;;;;;13.95;10.65;;;665.70;2432.00;;;;;;4885777;29;20538;-77
2023/06/22 05:38:49;;;;;;;16.08;12.00;;;665.90;2432.00;;;;;;4884799;29;20025;-76
2023/06/22 05:41:15;;;;;;;15.43;12.05;;;665.90;2432.00;;;;;;4892569;29;20101;-76
2023/06/22 05:43:40;;;;;;;15.93;11.80;;;666.00;2432.00;;;;;;4884781;29;20119;-78
2023/06/22 05:46:06;;;;;;;16.13;11.55;;;666.00;2432.00;;;;;;4890685;29;20112;-78
2023/06/22 05:48:32;;;;;;;17.05;12.95;;;666.00;2432.00;;;;;;4888492;29;20035;-78
2023/06/22 05:50:57;;;;;;;15.50;12.30;;;666.10;2432.00;;;;;;4890722;29;20021;-76
2023/06/22 05:53:23;;;;;;;18.00;12.73;;;666.20;2432.00;;;;;;4885123;29;20043;-74
2023/06/22 05:55:49;;;;;;;14.70;12.18;;;666.30;2432.00;;;;;;4889487;29;20021;-76
2023/06/22 05:58:15;;;;;;;17.80;12.07;;;666.40;2432.00;;;;;;4883269;29;20183;-75
2023/06/22 06:00:42;;;;;;;15.73;12.07;;;666.50;2432.00;;;;;;4891945;29;20025;-81
2023/06/22 06:03:08;;;;;;;15.40;11.43;;;691.20;2432.00;;;;;;4891116;29;20119;-76
2023/06/22 06:05:34;;;;;;;14.85;10.82;;;691.30;2432.00;;;;;;4894097;29;20032;-76
2023/06/22 06:08:01;;;;;;;14.50;12.65;;;691.30;2432.00;;;;;;4883906;29;20025;-76
2023/06/22 06:10:29;;;;;;;14.50;11.18;;;691.40;2432.00;;;;;;4890480;29;20028;-75
2023/06/22 06:12:55;;;;;;;16.30;11.70;;;691.50;2432.00;;;;;;4894087;29;20044;-75
2023/06/22 06:15:21;;;;;;;17.58;12.07;;;691.30;2432.00;;;;;;4888714;29;20037;-78
2023/06/22 06:17:51;;;;;;;16.48;12.32;;;691.70;2432.00;;;;;;4888490;29;20029;-76
2023/06/22 06:20:19;;;;;;;15.85;12.27;;;691.80;2432.00;;;;;;4886810;29;20103;-77
2023/06/22 06:22:45;;;;;;;15.40;11.40;;;691.90;2432.00;;;;;;4898448;29;20160;-78
2023/06/22 06:25:15;;;;;;;17.40;11.55;;;692.10;2432.00;;;;;;4890155;29;20057;-78
2023/06/22 06:27:45;;;;;;;15.57;12.05;;;692.10;2432.00;;;;;;4885358;29;20089;-76
2023/06/22 06:30:12;;;;;;;14.32;11.95;;;716.80;2432.00;;;;;;4893844;29;20021;-76
2023/06/22 06:32:38;;;;;;;16.38;12.23;;;716.80;2432.00;;;;;;4888843;29;20056;-77
2023/06/22 06:35:06;;;;;;;15.50;11.63;;;717.00;2432.00;;;;;;4888667;29;20025;-76
2023/06/22 06:37:32;;;;;;;18.27;11.63;;;717.10;2432.00;;;;;;4887292;29;20542;-76
2023/06/22 06:39:57;;;;;;;14.38;11.45;;;717.30;2432.00;;;;;;4889494;29;20029;-76
2023/06/22 06:42:24;;;;;;;14.80;11.30;;;717.40;2432.00;;;;;;4888343;29;20036;-76
2023/06/22 06:44:50;;;;;;;16.65;11.60;;;717.40;2432.00;;;;;;4892863;29;20496;-78
2023/06/22 06:47:16;;;;;;;17.42;11.77;;;717.50;2432.00;;;;;;4884972;29;20059;-77
2023/06/22 06:49:42;;;;;;;15.30;11.95;;;717.50;2432.00;;;;;;4895661;29;20021;-75
2023/06/22 06:52:08;;;;;;;14.40;11.57;;;717.50;2432.00;;;;;;4889622;29;20567;-82
2023/06/22 06:54:34;;;;;;;17.40;11.65;;;717.60;2432.00;;;;;;4890010;29;20032;-75
2023/06/22 06:56:59;;;;;;;16.70;12.25;;;717.70;2432.00;;;;;;4884773;29;20029;-77
2023/06/22 06:59:25;;;;;;;23.63;11.93;;;742.40;2432.00;;;;;;4886195;29;20534;-76
2023/06/22 07:01:51;;;;;;;18.25;12.90;;;742.40;2432.00;;;;;;4893517;29;20372;-76
2023/06/22 07:04:17;;;;;;;18.75;11.48;;;742.50;2432.00;;;;;;4887069;29;20042;-74
2023/06/22 07:06:42;;;;;;;19.58;11.23;;;742.60;2432.00;;;;;;4893639;29;20021;-75
2023/06/22 07:09:08;;;;;;;13.82;10.90;;;742.80;2432.00;;;;;;4893322;29;20083;-75
2023/06/22 07:11:35;;;;;;;13.27;11.40;;;742.90;2432.00;;;;;;4897974;29;20387;-75
2023/06/22 07:14:01;;;;;;;14.52;10.90;;;742.90;2432.00;;;;;;4883861;29;20057;-76
2023/06/22 07:16:27;;;;;;;13.98;11.02;;;743.00;2432.00;;;;;;4882822;29;20156;-75
2023/06/22 07:18:53;;;;;;;16.85;10.50;;;743.10;2432.00;;;;;;4889280;29;20033;-75
2023/06/22 07:21:19;;;;;;;16.27;10.80;;;743.20;2432.00;;;;;;4884087;29;20104;-75
2023/06/22 07:23:45;;;;;;;16.65;12.27;;;743.30;2432.00;;;;;;4883484;29;20610;-76
2023/06/22 07:26:12;;;;;;;16.33;13.80;;;768.00;2406.40;;;;;;4890657;29;20108;-77
2023/06/22 07:28:40;;;;;;;14.73;11.15;;;768.10;2432.00;;;;;;4883068;29;20381;-76
2023/06/22 07:31:06;;;;;;;13.07;11.00;;;768.20;2432.00;;;;;;4882097;29;20031;-75
2023/06/22 07:33:32;;;;;;;11.98;9.68;;;768.40;2432.00;;;;;;4889260;29;20108;-77
2023/06/22 07:35:58;;;;;;;15.60;11.20;;;768.40;2432.00;;;;;;4889989;29;20441;-76
2023/06/22 07:38:23;;;;;;;12.90;9.38;;;768.40;2380.80;;;;;;4884772;29;20025;-76
2023/06/22 07:40:50;;;;;;;10.93;9.43;;;768.40;2278.40;;;;;;4868226;29;20033;-75
2023/06/22 07:43:16;;;;;;;15.57;9.65;;;768.60;2278.40;;;;;;4884622;29;20132;-75
2023/06/22 07:45:54;;;;;;;11.20;9.68;;;768.60;2304.00;;;;;;4888218;29;20100;-76
2023/06/22 07:48:23;;;;;;;14.02;9.80;;;768.70;2278.40;;;;;;4889329;29;20028;-74
2023/06/22 07:50:49;;;;;;;10.85;9.75;;;768.80;2252.80;;;;;;4887902;29;20044;-73
2023/06/22 07:53:15;;;;;;;20.33;11.10;;;768.90;2176.00;;;;;;4887237;29;20032;-76
2023/06/22 07:55:40;;;;;;;12.38;9.60;;;793.70;2329.60;;;;;;4880863;29;20033;-74
2023/06/22 07:58:06;;;;;;;16.60;8.82;;;793.70;2073.60;;;;;;4889474;29;20041;-78
2023/06/22 08:00:33;;;;;;;14.55;9.50;;;793.70;1996.80;;;;;;4890040;29;20028;-74
2023/06/22 08:02:59;;;;;;;13.57;9.10;;;793.80;1945.60;;;;;;4887503;29;20041;-74
2023/06/22 08:05:25;;;;;;;11.70;9.18;;;793.90;1894.40;;;;;;4900029;29;20467;-75
2023/06/22 08:07:51;;;;;;;11.05;8.85;;;794.00;1894.40;;;;;;4888005;29;20068;-74
2023/06/22 08:10:16;;;;;;;18.27;9.10;;;794.00;1894.40;;;;;;4891777;29;20028;-75
2023/06/22 08:12:42;;;;;;;12.18;8.25;;;794.00;1843.20;;;;;;4881731;29;20556;-75
2023/06/22 08:15:09;;;;;;;11.82;8.25;;;794.10;1843.20;;;;;;4886610;29;20097;-79
2023/06/22 08:17:37;;;;;;;13.07;8.13;;;794.00;1868.80;;;;;;4884476;29;20080;-79
2023/06/22 08:20:09;;;;;;;9.98;8.45;;;794.20;1792.00;;;;;;4887055;29;20029;-77
2023/06/22 08:22:36;;;;;;;9.52;8.38;;;794.20;1766.40;;;;;;4879647;29;20029;-78
2023/06/22 08:25:03;;;;;;;12.00;9.35;;;794.20;1740.80;;;;;;4885543;29;20128;-77
2023/06/22 08:27:33;;;;;;;12.48;9.18;;;794.30;1843.20;;;;;;4890535;29;20025;-75
2023/06/22 08:30:00;;;;;;;10.60;8.95;;;794.40;1843.20;;;;;;4889273;29;20029;-74
2023/06/22 08:32:29;;;;;;;11.98;9.23;;;794.30;1792.00;;;;;;4891992;29;20420;-74
2023/06/22 08:34:55;;;;;;;13.25;8.63;;;794.40;1817.60;;;;;;4885224;29;20499;-76
2023/06/22 08:37:24;;;;;;;12.85;9.35;;;794.50;1868.80;;;;;;4884810;29;20043;-75
2023/06/22 08:39:50;;;;;;;10.38;9.35;;;794.50;1740.80;;;;;;4892663;29;20104;-76
2023/06/22 08:42:16;;;;;;;12.55;8.98;;;794.50;1715.20;;;;;;4884750;29;20096;-77
2023/06/22 08:44:41;;;;;;;11.23;9.13;;;794.50;1740.80;;;;;;4890325;29;20041;-78
2023/06/22 08:47:07;;;;;;;12.13;9.05;;;819.30;1766.40;;;;;;4890382;29;20373;-76
2023/06/22 08:49:33;;;;;;;13.40;9.13;;;819.30;1766.40;;;;;;4882118;29;20057;-79
2023/06/22 08:51:59;;;;;;;11.40;9.40;;;819.30;1843.20;;;;;;4889376;29;20367;-74
2023/06/22 08:54:24;;;;;;;11.63;8.85;;;819.40;1894.40;;;;;;4885142;29;20025;-74
2023/06/22 08:56:50;;;;;;;11.48;8.55;;;819.50;1766.40;;;;;;4891635;29;20033;-73
2023/06/22 08:59:16;;;;;;;10.70;9.48;;;819.30;1715.20;;;;;;4883174;29;20076;-77
2023/06/22 09:01:45;;;;;;;11.43;8.45;;;819.30;1766.40;;;;;;4885466;29;20025;-87
2023/06/22 09:04:11;;;;;;;16.33;9.63;;;819.30;1766.40;;;;;;4886327;29;20032;-74
2023/06/22 09:06:44;;;;;;;16.40;9.25;;;819.30;1740.80;;;;;;4889267;29;20388;-73
2023/06/22 09:09:10;;;;;;;10.02;8.05;;;819.50;1920.00;;;;;;4888427;29;20598;-74
2023/06/22 09:11:36;;;;;;;10.27;8.38;;;819.60;1792.00;;;;;;4890217;29;20097;-74
2023/06/22 09:14:01;;;;;;;13.70;9.15;;;819.60;1689.60;;;;;;4884034;29;20061;-73
2023/06/22 09:16:27;;;;;;;10.93;9.43;;;819.70;1638.40;;;;;;4880495;29;20381;-75
2023/06/22 09:18:53;;;;;;;10.95;9.52;;;819.80;1715.20;;;;;;4887859;29;20040;-75
2023/06/22 09:21:18;;;;;;;9.65;7.85;;;819.80;1715.20;;;;;;4881054;29;20028;-73
2023/06/22 09:23:46;;;;;;;9.88;8.43;;;819.70;1664.00;;;;;;4881957;29;20429;-77
2023/06/22 09:26:12;;;;;;;14.23;9.35;;;819.80;1817.60;;;;;;4891311;29;20025;-73
2023/06/22 09:28:39;;;;;;;11.20;8.45;;;819.80;1689.60;;;;;;4888364;29;20137;-73
2023/06/22 09:31:06;;;;;;;10.57;9.20;;;819.80;1664.00;;;;;;4886756;29;20468;-75
2023/06/22 09:33:32;;;;;;;12.30;9.35;;;819.80;1587.20;;;;;;4891095;29;20024;-79
2023/06/22 09:35:58;;;;;;;9.88;8.88;;;819.80;1689.60;;;;;;4884251;29;20471;-73
2023/06/22 09:38:23;;;;;;;10.57;9.40;;;820.00;1715.20;;;;;;4884744;29;20502;-73
2023/06/22 09:40:49;;;;;;;9.13;8.25;;;820.00;1561.60;;;;;;4893294;29;20029;-78
2023/06/22 09:43:15;;;;;;;18.63;8.90;;;820.10;1561.60;;;;;;4887467;29;20073;-74
2023/06/22 09:45:40;;;;;;;12.57;9.30;;;820.10;1587.20;;;;;;4886792;29;20044;-77
2023/06/22 09:48:06;;;;;;;11.68;9.65;;;844.80;1612.80;;;;;;4888380;29;20067;-74
2023/06/22 09:50:32;;;;;;;12.52;10.10;;;844.90;1638.40;;;;;;4890274;29;20036;-73
2023/06/22 09:52:57;;;;;;;10.70;9.55;;;844.90;1587.20;;;;;;4882659;29;20029;-78
2023/06/22 09:55:23;;;;;;;11.02;9.95;;;845.00;1587.20;;;;;;4886087;29;20120;-73
2023/06/22 09:57:49;;;;;;;13.63;10.25;;;845.10;1689.60;;;;;;4892532;29;20029;-73
2023/06/22 10:00:17;;;;;;;13.60;10.40;;;845.10;1612.80;;;;;;4892241;29;20036;-74
2023/06/22 10:02:42;;;;;;;19.63;10.80;;;845.30;1587.20;;;;;;4884355;29;20069;-74
2023/06/22 10:05:08;;;;;;;18.38;10.27;;;845.10;2048.00;;;;;;4883691;29;20056;-73
2023/06/22 10:07:34;;;;;;;13.93;9.68;;;819.80;2227.20;;;;;;4886951;29;20088;-73
2023/06/22 10:10:00;;;;;;;19.17;9.90;;;819.60;2432.00;;;;;;4889722;29;20644;-75
2023/06/22 10:12:27;;;;;;;21.23;8.98;;;819.30;2406.40;;;;;;4889042;29;20029;-74
2023/06/22 10:14:53;;;;;;;12.43;9.50;;;819.30;2380.80;;;;;;4885997;29;20067;-73
2023/06/22 10:17:18;;;;;;;15.57;9.63;;;794.50;2278.40;;;;;;4885704;29;20025;-76
2023/06/22 10:19:44;;;;;;;12.45;9.18;;;794.50;2278.40;;;;;;4891574;29;20488;-73
2023/06/22 10:22:10;;;;;;;12.05;9.57;;;819.20;2329.60;;;;;;4891301;29;20164;-73
2023/06/22 10:24:35;;;;;;;15.25;9.68;;;819.20;2380.80;;;;;;4894069;29;20024;-77
2023/06/22 10:27:01;;;;;;;11.18;8.65;;;819.20;2406.40;;;;;;4892889;29;20029;-76
2023/06/22 10:29:27;;;;;;;14.52;9.60;;;819.20;2355.20;;;;;;4891075;29;20032;-77
2023/06/22 10:31:52;;;;;;;16.67;9.50;;;819.50;2432.00;;;;;;4890048;29;20366;-76
2023/06/22 10:34:18;;;;;;;12.95;9.40;;;819.60;2406.40;;;;;;4888320;29;20166;-75
2023/06/22 10:36:47;;;;;;;14.52;8.88;;;819.50;2252.80;;;;;;4893511;29;20566;-76
2023/06/22 10:39:12;;;;;;;14.32;9.20;;;819.50;2432.00;;;;;;4889558;29;20483;-77
2023/06/22 10:41:38;;;;;;;10.50;9.07;;;819.60;2329.60;;;;;;4882978;29;20040;-74
2023/06/22 10:44:04;;;;;;;18.23;9.13;;;819.70;2432.00;;;;;;4892881;29;20515;-77
2023/06/22 10:46:29;;;;;;;10.82;9.57;;;819.60;2176.00;;;;;;4889806;29;20032;-73
2023/06/22 10:48:56;;;;;;;16.77;9.98;;;819.70;2278.40;;;;;;4886483;29;20037;-74
2023/06/22 10:51:22;;;;;;;12.05;9.40;;;819.80;2329.60;;;;;;4890259;29;20025;-75
2023/06/22 10:53:48;;;;;;;11.43;9.25;;;819.80;2176.00;;;;;;4888553;29;20024;-71
2023/06/22 10:56:14;;;;;;;10.55;8.90;;;819.60;2201.60;;;;;;4883949;29;20029;-71
2023/06/22 10:58:39;;;;;;;82.53;13.95;;;819.70;2355.20;;;;;;4892106;29;20454;-74
2023/06/22 11:01:05;;;;;;;15.68;9.73;;;819.80;2329.60;;;;;;4888144;29;20480;-71
2023/06/22 11:03:31;;;;;;;20.55;10.00;;;820.10;2227.20;;;;;;4887841;29;20033;-72
2023/06/22 11:05:56;;;;;;;16.23;9.45;;;819.80;2124.80;;;;;;4888902;29;20043;-72
2023/06/22 11:08:22;;;;;;;15.52;8.52;;;820.00;2124.80;;;;;;4889452;29;20060;-72
2023/06/22 11:10:47;;;;;;;11.25;9.48;;;820.10;2227.20;;;;;;4890383;29;20100;-71
2023/06/22 11:13:13;;;;;;;12.77;9.60;;;819.70;2278.40;;;;;;4884577;29;20057;-72
2023/06/22 11:15:40;;;;;;;18.80;11.05;;;819.80;2176.00;;;;;;4886152;29;20157;-73
2023/06/22 11:18:06;;;;;;;15.35;10.10;;;819.80;2227.20;;;;;;4890179;29;20044;-81
2023/06/22 11:20:34;;;;;;;12.13;9.65;;;819.60;2150.40;;;;;;4889199;29;20028;-71
2023/06/22 11:23:00;;;;;;;13.18;9.32;;;819.70;2124.80;;;;;;4896806;29;20028;-83
2023/06/22 11:25:26;;;;;;;12.23;9.45;;;819.60;2201.60;;;;;;4889285;29;20032;-74
2023/06/22 11:27:53;;;;;;;11.70;9.35;;;819.60;2227.20;;;;;;4885544;29;20115;-74
2023/06/22 11:30:19;;;;;;;10.73;8.90;;;819.70;2099.20;;;;;;4883657;29;20032;-78
2023/06/22 11:32:45;;;;;;;11.35;8.95;;;819.60;2124.80;;;;;;4886703;29;20100;-72
2023/06/22 11:35:11;;;;;;;12.75;10.00;;;819.80;2073.60;;;;;;4886626;29;20108;-71
2023/06/22 11:37:36;;;;;;;13.25;8.90;;;820.00;2227.20;;;;;;4890876;29;20029;-73
2023/06/22 11:40:05;;;;;;;11.18;8.07;;;820.10;2099.20;;;;;;4889558;29;20091;-82
2023/06/22 11:42:31;;;;;;;12.80;8.48;;;820.10;2124.80;;;;;;4891403;29;20475;-72
2023/06/22 11:44:56;;;;;;;18.45;9.45;;;819.80;2048.00;;;;;;4869255;29;20052;-75
2023/06/22 11:47:22;;;;;;;14.57;9.00;;;819.80;2099.20;;;;;;4890695;29;20068;-79
2023/06/22 11:49:48;;;;;;;10.70;8.48;;;820.00;2073.60;;;;;;4885234;29;20492;-82
2023/06/22 11:52:13;;;;;;;11.50;9.52;;;820.10;2073.60;;;;;;4891826;29;20100;-75
2023/06/22 11:54:39;;;;;;;12.80;9.00;;;820.10;2124.80;;;;;;4888028;29;20033;-75
2023/06/22 11:57:05;;;;;;;20.55;9.05;;;844.90;2176.00;;;;;;4887786;29;20085;-71
2023/06/22 11:59:30;;;;;;;11.75;8.73;;;845.10;2124.80;;;;;;4886820;29;20035;-73
2023/06/22 12:01:58;;;;;;;10.18;9.02;;;844.90;2022.40;;;;;;4886649;29;20073;-71
2023/06/22 12:04:23;;;;;;;11.05;8.73;;;845.10;1996.80;;;;;;4888978;29;20033;-73